sensor_id;sensor_type;location;lat;lon;timestamp;P1;durP1;ratioP1;P2;durP2;ratioP2
24873;SDS011;12945;42.648;23.370;2023-04-24T00:02:06;10.88;;;5.68;;
24873;SDS011;12945;42.648;23.370;2023-04-24T00:04:31;10.40;;;5.68;;
24873;SDS011;12945;42.648;23.370;2023-04-24T00:06:57;12.18;;;6.20;;
24873;SDS011;12945;42.648;23.370;2023-04-24T00:09:25;14.57;;;6.43;;
24873;SDS011;12945;42.648;23.370;2023-04-24T00:11:50;17.15;;;6.50;;
24873;SDS011;12945;42.648;23.370;2023-04-24T00:14:15;11.45;;;5.40;;
24873;SDS011;12945;42.648;23.370;2023-04-24T00:16:41;13.55;;;6.13;;
24873;SDS011;12945;42.648;23.370;2023-04-24T00:19:06;17.63;;;6.72;;
24873;SDS011;12945;42.648;23.370;2023-04-24T00:21:32;13.63;;;6.25;;
24873;SDS011;12945;42.648;23.370;2023-04-24T00:23:57;16.00;;;6.35;;
24873;SDS011;12945;42.648;23.370;2023-04-24T00:26:23;12.40;;;6.38;;
24873;SDS011;12945;42.648;23.370;2023-04-24T00:28:48;11.23;;;6.55;;
24873;SDS011;12945;42.648;23.370;2023-04-24T00:31:13;10.65;;;6.30;;
24873;SDS011;12945;42.648;23.370;2023-04-24T00:33:39;13.27;;;6.97;;
24873;SDS011;12945;42.648;23.370;2023-04-24T00:36:04;9.40;;;6.35;;
24873;SDS011;12945;42.648;23.370;2023-04-24T00:38:30;9.50;;;5.70;;
24873;SDS011;12945;42.648;23.370;2023-04-24T00:40:56;12.27;;;6.40;;
24873;SDS011;12945;42.648;23.370;2023-04-24T00:43:21;14.20;;;6.40;;
24873;SDS011;12945;42.648;23.370;2023-04-24T00:45:46;10.18;;;6.40;;
24873;SDS011;12945;42.648;23.370;2023-04-24T00:48:12;9.70;;;5.80;;
24873;SDS011;12945;42.648;23.370;2023-04-24T00:50:37;10.63;;;5.80;;
24873;SDS011;12945;42.648;23.370;2023-04-24T00:53:03;10.05;;;6.40;;
24873;SDS011;12945;42.648;23.370;2023-04-24T00:55:28;10.63;;;7.20;;
24873;SDS011;12945;42.648;23.370;2023-04-24T00:57:53;13.55;;;7.18;;
24873;SDS011;12945;42.648;23.370;2023-04-24T01:00:19;13.57;;;7.22;;
24873;SDS011;12945;42.648;23.370;2023-04-24T01:02:44;11.90;;;7.07;;
24873;SDS011;12945;42.648;23.370;2023-04-24T01:05:11;11.70;;;7.22;;
24873;SDS011;12945;42.648;23.370;2023-04-24T01:07:37;13.27;;;7.50;;
24873;SDS011;12945;42.648;23.370;2023-04-24T01:10:03;17.65;;;8.10;;
24873;SDS011;12945;42.648;23.370;2023-04-24T01:12:28;23.45;;;7.03;;
24873;SDS011;12945;42.648;23.370;2023-04-24T01:14:54;10.93;;;6.55;;
24873;SDS011;12945;42.648;23.370;2023-04-24T01:17:19;18.13;;;7.22;;
24873;SDS011;12945;42.648;23.370;2023-04-24T01:19:46;13.18;;;6.50;;
24873;SDS011;12945;42.648;23.370;2023-04-24T01:22:12;11.63;;;6.95;;
24873;SDS011;12945;42.648;23.370;2023-04-24T01:24:38;11.52;;;6.85;;
24873;SDS011;12945;42.648;23.370;2023-04-24T01:27:03;11.13;;;6.45;;
24873;SDS011;12945;42.648;23.370;2023-04-24T01:29:29;14.82;;;7.28;;
24873;SDS011;12945;42.648;23.370;2023-04-24T01:31:54;14.50;;;6.75;;
24873;SDS011;12945;42.648;23.370;2023-04-24T01:34:20;12.38;;;7.18;;
24873;SDS011;12945;42.648;23.370;2023-04-24T01:36:45;10.82;;;6.85;;
24873;SDS011;12945;42.648;23.370;2023-04-24T01:39:11;11.15;;;7.40;;
24873;SDS011;12945;42.648;23.370;2023-04-24T01:41:36;13.02;;;7.07;;
24873;SDS011;12945;42.648;23.370;2023-04-24T01:44:02;12.88;;;7.15;;
24873;SDS011;12945;42.648;23.370;2023-04-24T01:46:27;12.40;;;7.28;;
24873;SDS011;12945;42.648;23.370;2023-04-24T01:48:53;11.90;;;7.50;;
24873;SDS011;12945;42.648;23.370;2023-04-24T01:51:18;10.02;;;7.30;;
24873;SDS011;12945;42.648;23.370;2023-04-24T01:53:43;17.92;;;7.70;;
24873;SDS011;12945;42.648;23.370;2023-04-24T01:56:09;12.77;;;7.65;;
24873;SDS011;12945;42.648;23.370;2023-04-24T01:58:34;18.33;;;8.10;;
24873;SDS011;12945;42.648;23.370;2023-04-24T02:01:00;16.45;;;7.57;;
24873;SDS011;12945;42.648;23.370;2023-04-24T02:03:26;16.20;;;7.47;;
24873;SDS011;12945;42.648;23.370;2023-04-24T02:05:51;15.48;;;7.55;;
24873;SDS011;12945;42.648;23.370;2023-04-24T02:08:16;12.48;;;6.55;;
24873;SDS011;12945;42.648;23.370;2023-04-24T02:10:42;12.48;;;7.45;;
24873;SDS011;12945;42.648;23.370;2023-04-24T02:13:07;16.77;;;7.55;;
24873;SDS011;12945;42.648;23.370;2023-04-24T02:15:32;14.93;;;8.10;;
24873;SDS011;12945;42.648;23.370;2023-04-24T02:17:58;13.95;;;8.18;;
24873;SDS011;12945;42.648;23.370;2023-04-24T02:20:23;16.33;;;7.90;;
24873;SDS011;12945;42.648;23.370;2023-04-24T02:22:48;19.92;;;8.63;;
24873;SDS011;12945;42.648;23.370;2023-04-24T02:25:14;15.63;;;8.73;;
24873;SDS011;12945;42.648;23.370;2023-04-24T02:27:39;14.40;;;8.02;;
24873;SDS011;12945;42.648;23.370;2023-04-24T02:30:04;13.50;;;8.55;;
24873;SDS011;12945;42.648;23.370;2023-04-24T02:32:31;15.05;;;8.80;;
24873;SDS011;12945;42.648;23.370;2023-04-24T02:34:56;17.40;;;8.63;;
24873;SDS011;12945;42.648;23.370;2023-04-24T02:37:21;15.90;;;8.57;;
24873;SDS011;12945;42.648;23.370;2023-04-24T02:39:46;15.98;;;8.55;;
24873;SDS011;12945;42.648;23.370;2023-04-24T02:42:12;14.32;;;8.85;;
24873;SDS011;12945;42.648;23.370;2023-04-24T02:44:37;11.73;;;7.65;;
24873;SDS011;12945;42.648;23.370;2023-04-24T02:47:02;17.15;;;7.85;;
24873;SDS011;12945;42.648;23.370;2023-04-24T02:49:28;10.93;;;7.30;;
24873;SDS011;12945;42.648;23.370;2023-04-24T02:51:53;15.43;;;8.45;;
24873;SDS011;12945;42.648;23.370;2023-04-24T02:54:18;14.07;;;7.72;;
24873;SDS011;12945;42.648;23.370;2023-04-24T02:56:44;13.68;;;7.55;;
24873;SDS011;12945;42.648;23.370;2023-04-24T02:59:09;15.45;;;7.25;;
24873;SDS011;12945;42.648;23.370;2023-04-24T03:01:35;14.15;;;8.80;;
24873;SDS011;12945;42.648;23.370;2023-04-24T03:04:01;14.45;;;8.05;;
24873;SDS011;12945;42.648;23.370;2023-04-24T03:06:26;17.30;;;7.90;;
24873;SDS011;12945;42.648;23.370;2023-04-24T03:08:53;14.95;;;8.35;;
24873;SDS011;12945;42.648;23.370;2023-04-24T03:11:19;14.13;;;8.57;;
24873;SDS011;12945;42.648;23.370;2023-04-24T03:13:45;13.93;;;8.93;;
24873;SDS011;12945;42.648;23.370;2023-04-24T03:16:10;12.52;;;8.50;;
24873;SDS011;12945;42.648;23.370;2023-04-24T03:18:35;15.88;;;8.80;;
24873;SDS011;12945;42.648;23.370;2023-04-24T03:21:00;12.40;;;8.50;;
24873;SDS011;12945;42.648;23.370;2023-04-24T03:23:26;19.17;;;9.43;;
24873;SDS011;12945;42.648;23.370;2023-04-24T03:25:51;21.15;;;9.32;;
24873;SDS011;12945;42.648;23.370;2023-04-24T03:28:17;13.30;;;8.93;;
24873;SDS011;12945;42.648;23.370;2023-04-24T03:30:42;13.48;;;8.60;;
24873;SDS011;12945;42.648;23.370;2023-04-24T03:33:07;17.15;;;9.05;;
24873;SDS011;12945;42.648;23.370;2023-04-24T03:35:33;17.80;;;9.20;;
24873;SDS011;12945;42.648;23.370;2023-04-24T03:37:58;15.95;;;9.60;;
24873;SDS011;12945;42.648;23.370;2023-04-24T03:40:24;25.90;;;10.63;;
24873;SDS011;12945;42.648;23.370;2023-04-24T03:42:49;18.52;;;10.73;;
24873;SDS011;12945;42.648;23.370;2023-04-24T03:45:15;21.92;;;9.63;;
24873;SDS011;12945;42.648;23.370;2023-04-24T03:47:40;18.88;;;10.57;;
24873;SDS011;12945;42.648;23.370;2023-04-24T03:50:06;24.33;;;11.32;;
24873;SDS011;12945;42.648;23.370;2023-04-24T03:52:31;19.40;;;10.48;;
24873;SDS011;12945;42.648;23.370;2023-04-24T03:54:56;22.50;;;11.18;;
24873;SDS011;12945;42.648;23.370;2023-04-24T03:57:22;24.33;;;12.02;;
24873;SDS011;12945;42.648;23.370;2023-04-24T03:59:47;21.25;;;11.73;;
24873;SDS011;12945;42.648;23.370;2023-04-24T04:02:12;23.42;;;12.45;;
24873;SDS011;12945;42.648;23.370;2023-04-24T04:04:38;19.80;;;11.63;;
24873;SDS011;12945;42.648;23.370;2023-04-24T04:07:03;20.17;;;12.05;;
24873;SDS011;12945;42.648;23.370;2023-04-24T04:09:30;23.50;;;11.90;;
24873;SDS011;12945;42.648;23.370;2023-04-24T04:11:55;21.25;;;12.82;;
24873;SDS011;12945;42.648;23.370;2023-04-24T04:14:21;24.63;;;12.35;;
24873;SDS011;12945;42.648;23.370;2023-04-24T04:16:46;16.88;;;12.23;;
24873;SDS011;12945;42.648;23.370;2023-04-24T04:19:11;21.35;;;13.57;;
24873;SDS011;12945;42.648;23.370;2023-04-24T04:21:37;19.20;;;12.98;;
24873;SDS011;12945;42.648;23.370;2023-04-24T04:24:02;24.73;;;13.00;;
24873;SDS011;12945;42.648;23.370;2023-04-24T04:26:27;23.15;;;12.35;;
24873;SDS011;12945;42.648;23.370;2023-04-24T04:28:53;27.55;;;14.02;;
24873;SDS011;12945;42.648;23.370;2023-04-24T04:31:21;28.20;;;11.95;;
24873;SDS011;12945;42.648;23.370;2023-04-24T04:33:46;20.80;;;12.02;;
24873;SDS011;12945;42.648;23.370;2023-04-24T04:36:12;26.33;;;11.23;;
24873;SDS011;12945;42.648;23.370;2023-04-24T04:38:37;18.13;;;11.70;;
24873;SDS011;12945;42.648;23.370;2023-04-24T04:41:03;18.45;;;10.35;;
24873;SDS011;12945;42.648;23.370;2023-04-24T04:43:28;19.30;;;11.02;;
24873;SDS011;12945;42.648;23.370;2023-04-24T04:45:53;20.38;;;11.35;;
24873;SDS011;12945;42.648;23.370;2023-04-24T04:48:19;24.50;;;10.52;;
24873;SDS011;12945;42.648;23.370;2023-04-24T04:50:45;24.92;;;10.65;;
24873;SDS011;12945;42.648;23.370;2023-04-24T04:53:10;27.92;;;10.13;;
24873;SDS011;12945;42.648;23.370;2023-04-24T04:55:36;23.42;;;9.52;;
24873;SDS011;12945;42.648;23.370;2023-04-24T04:58:01;17.67;;;9.25;;
24873;SDS011;12945;42.648;23.370;2023-04-24T05:00:26;16.08;;;9.13;;
24873;SDS011;12945;42.648;23.370;2023-04-24T05:02:53;18.65;;;8.70;;
24873;SDS011;12945;42.648;23.370;2023-04-24T05:05:19;27.75;;;10.50;;
24873;SDS011;12945;42.648;23.370;2023-04-24T05:07:44;20.77;;;9.70;;
24873;SDS011;12945;42.648;23.370;2023-04-24T05:10:10;22.88;;;9.35;;
24873;SDS011;12945;42.648;23.370;2023-04-24T05:12:35;18.63;;;9.00;;
24873;SDS011;12945;42.648;23.370;2023-04-24T05:15:01;17.60;;;9.30;;
24873;SDS011;12945;42.648;23.370;2023-04-24T05:17:26;17.75;;;9.32;;
24873;SDS011;12945;42.648;23.370;2023-04-24T05:19:51;18.67;;;8.35;;
24873;SDS011;12945;42.648;23.370;2023-04-24T05:22:17;23.50;;;8.13;;
24873;SDS011;12945;42.648;23.370;2023-04-24T05:24:43;22.30;;;8.13;;
24873;SDS011;12945;42.648;23.370;2023-04-24T05:27:09;18.55;;;8.18;;
24873;SDS011;12945;42.648;23.370;2023-04-24T05:29:34;23.27;;;8.05;;
24873;SDS011;12945;42.648;23.370;2023-04-24T05:32:00;20.88;;;7.38;;
24873;SDS011;12945;42.648;23.370;2023-04-24T05:34:25;23.52;;;8.05;;
24873;SDS011;12945;42.648;23.370;2023-04-24T05:36:51;15.77;;;8.13;;
24873;SDS011;12945;42.648;23.370;2023-04-24T05:39:16;20.98;;;8.07;;
24873;SDS011;12945;42.648;23.370;2023-04-24T05:41:42;20.70;;;7.50;;
24873;SDS011;12945;42.648;23.370;2023-04-24T05:44:07;21.52;;;7.80;;
24873;SDS011;12945;42.648;23.370;2023-04-24T05:46:32;17.88;;;7.43;;
24873;SDS011;12945;42.648;23.370;2023-04-24T05:48:58;25.10;;;7.35;;
24873;SDS011;12945;42.648;23.370;2023-04-24T05:51:23;13.40;;;7.50;;
24873;SDS011;12945;42.648;23.370;2023-04-24T05:53:48;19.25;;;8.02;;
24873;SDS011;12945;42.648;23.370;2023-04-24T05:56:14;20.90;;;7.90;;
24873;SDS011;12945;42.648;23.370;2023-04-24T05:58:40;14.55;;;7.35;;
24873;SDS011;12945;42.648;23.370;2023-04-24T06:01:06;16.27;;;6.93;;
24873;SDS011;12945;42.648;23.370;2023-04-24T06:03:31;13.30;;;7.97;;
24873;SDS011;12945;42.648;23.370;2023-04-24T06:05:56;17.13;;;8.73;;
24873;SDS011;12945;42.648;23.370;2023-04-24T06:08:22;19.20;;;8.35;;
24873;SDS011;12945;42.648;23.370;2023-04-24T06:10:47;19.88;;;9.38;;
24873;SDS011;12945;42.648;23.370;2023-04-24T06:13:12;18.52;;;9.00;;
24873;SDS011;12945;42.648;23.370;2023-04-24T06:15:38;18.63;;;8.15;;
24873;SDS011;12945;42.648;23.370;2023-04-24T06:18:03;26.35;;;8.15;;
24873;SDS011;12945;42.648;23.370;2023-04-24T06:20:28;18.95;;;8.43;;
24873;SDS011;12945;42.648;23.370;2023-04-24T06:22:54;20.55;;;8.15;;
24873;SDS011;12945;42.648;23.370;2023-04-24T06:25:19;19.63;;;8.13;;
24873;SDS011;12945;42.648;23.370;2023-04-24T06:27:44;14.00;;;8.23;;
24873;SDS011;12945;42.648;23.370;2023-04-24T06:30:10;21.20;;;8.90;;
24873;SDS011;12945;42.648;23.370;2023-04-24T06:32:36;15.98;;;8.75;;
24873;SDS011;12945;42.648;23.370;2023-04-24T06:35:01;15.07;;;8.05;;
24873;SDS011;12945;42.648;23.370;2023-04-24T06:37:26;18.17;;;8.35;;
24873;SDS011;12945;42.648;23.370;2023-04-24T06:39:52;19.77;;;8.88;;
24873;SDS011;12945;42.648;23.370;2023-04-24T06:42:17;17.17;;;8.95;;
24873;SDS011;12945;42.648;23.370;2023-04-24T06:44:42;15.75;;;8.23;;
24873;SDS011;12945;42.648;23.370;2023-04-24T06:47:08;21.92;;;8.88;;
24873;SDS011;12945;42.648;23.370;2023-04-24T06:49:35;16.42;;;9.30;;
24873;SDS011;12945;42.648;23.370;2023-04-24T06:52:00;17.02;;;9.48;;
24873;SDS011;12945;42.648;23.370;2023-04-24T06:54:25;16.45;;;9.13;;
24873;SDS011;12945;42.648;23.370;2023-04-24T06:56:51;17.48;;;9.10;;
24873;SDS011;12945;42.648;23.370;2023-04-24T06:59:17;15.70;;;8.65;;
24873;SDS011;12945;42.648;23.370;2023-04-24T07:01:42;15.95;;;8.93;;
24873;SDS011;12945;42.648;23.370;2023-04-24T07:04:07;21.52;;;10.75;;
24873;SDS011;12945;42.648;23.370;2023-04-24T07:06:33;19.35;;;9.93;;
24873;SDS011;12945;42.648;23.370;2023-04-24T07:08:58;22.67;;;10.15;;
24873;SDS011;12945;42.648;23.370;2023-04-24T07:11:25;24.42;;;10.23;;
24873;SDS011;12945;42.648;23.370;2023-04-24T07:13:54;18.60;;;10.27;;
24873;SDS011;12945;42.648;23.370;2023-04-24T07:16:19;26.23;;;12.77;;
24873;SDS011;12945;42.648;23.370;2023-04-24T07:18:44;16.95;;;9.35;;
24873;SDS011;12945;42.648;23.370;2023-04-24T07:21:10;17.55;;;9.70;;
24873;SDS011;12945;42.648;23.370;2023-04-24T07:23:36;19.10;;;10.10;;
24873;SDS011;12945;42.648;23.370;2023-04-24T07:26:01;18.23;;;9.77;;
24873;SDS011;12945;42.648;23.370;2023-04-24T07:28:27;13.50;;;9.18;;
24873;SDS011;12945;42.648;23.370;2023-04-24T07:30:56;16.15;;;9.18;;
24873;SDS011;12945;42.648;23.370;2023-04-24T07:33:22;18.40;;;9.32;;
24873;SDS011;12945;42.648;23.370;2023-04-24T07:35:48;15.93;;;9.32;;
24873;SDS011;12945;42.648;23.370;2023-04-24T07:38:13;18.30;;;9.52;;
24873;SDS011;12945;42.648;23.370;2023-04-24T07:40:39;15.10;;;9.02;;
24873;SDS011;12945;42.648;23.370;2023-04-24T07:43:04;16.88;;;9.88;;
24873;SDS011;12945;42.648;23.370;2023-04-24T07:45:29;16.92;;;8.82;;
24873;SDS011;12945;42.648;23.370;2023-04-24T07:47:56;16.60;;;9.45;;
24873;SDS011;12945;42.648;23.370;2023-04-24T07:50:21;15.13;;;8.20;;
24873;SDS011;12945;42.648;23.370;2023-04-24T07:52:46;15.50;;;8.23;;
24873;SDS011;12945;42.648;23.370;2023-04-24T07:55:12;13.32;;;8.40;;
24873;SDS011;12945;42.648;23.370;2023-04-24T07:57:37;16.40;;;8.65;;
24873;SDS011;12945;42.648;23.370;2023-04-24T08:00:06;15.65;;;7.38;;
24873;SDS011;12945;42.648;23.370;2023-04-24T08:02:31;13.35;;;6.80;;
24873;SDS011;12945;42.648;23.370;2023-04-24T08:04:56;11.02;;;7.18;;
24873;SDS011;12945;42.648;23.370;2023-04-24T08:07:23;13.18;;;7.05;;
24873;SDS011;12945;42.648;23.370;2023-04-24T08:09:48;17.27;;;7.45;;
24873;SDS011;12945;42.648;23.370;2023-04-24T08:12:14;17.15;;;7.82;;
24873;SDS011;12945;42.648;23.370;2023-04-24T08:14:39;13.88;;;8.00;;
24873;SDS011;12945;42.648;23.370;2023-04-24T08:17:05;12.27;;;7.80;;
24873;SDS011;12945;42.648;23.370;2023-04-24T08:19:30;20.52;;;8.23;;
24873;SDS011;12945;42.648;23.370;2023-04-24T08:21:55;22.20;;;8.55;;
24873;SDS011;12945;42.648;23.370;2023-04-24T08:24:21;15.30;;;7.93;;
24873;SDS011;12945;42.648;23.370;2023-04-24T08:26:47;18.33;;;8.35;;
24873;SDS011;12945;42.648;23.370;2023-04-24T08:29:15;11.35;;;7.43;;
24873;SDS011;12945;42.648;23.370;2023-04-24T08:31:40;13.80;;;7.88;;
24873;SDS011;12945;42.648;23.370;2023-04-24T08:34:06;13.30;;;7.60;;
24873;SDS011;12945;42.648;23.370;2023-04-24T08:36:31;15.48;;;8.27;;
24873;SDS011;12945;42.648;23.370;2023-04-24T08:38:56;13.50;;;7.15;;
24873;SDS011;12945;42.648;23.370;2023-04-24T08:41:22;12.20;;;6.55;;
24873;SDS011;12945;42.648;23.370;2023-04-24T08:43:47;9.85;;;6.05;;
24873;SDS011;12945;42.648;23.370;2023-04-24T08:46:13;13.20;;;6.72;;
24873;SDS011;12945;42.648;23.370;2023-04-24T08:48:40;13.32;;;6.50;;
24873;SDS011;12945;42.648;23.370;2023-04-24T08:51:08;13.00;;;6.80;;
24873;SDS011;12945;42.648;23.370;2023-04-24T08:53:34;12.75;;;6.20;;
24873;SDS011;12945;42.648;23.370;2023-04-24T08:56:00;15.52;;;6.47;;
24873;SDS011;12945;42.648;23.370;2023-04-24T08:58:26;12.77;;;6.25;;
24873;SDS011;12945;42.648;23.370;2023-04-24T09:00:53;14.52;;;6.32;;
24873;SDS011;12945;42.648;23.370;2023-04-24T09:03:19;12.95;;;5.97;;
24873;SDS011;12945;42.648;23.370;2023-04-24T09:05:46;14.00;;;6.18;;
24873;SDS011;12945;42.648;23.370;2023-04-24T09:08:12;14.63;;;6.13;;
24873;SDS011;12945;42.648;23.370;2023-04-24T09:10:38;10.98;;;5.80;;
24873;SDS011;12945;42.648;23.370;2023-04-24T09:13:04;12.40;;;5.97;;
24873;SDS011;12945;42.648;23.370;2023-04-24T09:15:29;12.10;;;5.80;;
24873;SDS011;12945;42.648;23.370;2023-04-24T09:17:55;8.52;;;5.72;;
24873;SDS011;12945;42.648;23.370;2023-04-24T09:20:21;10.75;;;5.72;;
24873;SDS011;12945;42.648;23.370;2023-04-24T09:22:46;12.18;;;5.65;;
24873;SDS011;12945;42.648;23.370;2023-04-24T09:25:12;10.45;;;5.43;;
24873;SDS011;12945;42.648;23.370;2023-04-24T09:27:41;12.07;;;5.72;;
24873;SDS011;12945;42.648;23.370;2023-04-24T09:30:07;8.93;;;5.32;;
24873;SDS011;12945;42.648;23.370;2023-04-24T09:32:33;11.82;;;5.70;;
24873;SDS011;12945;42.648;23.370;2023-04-24T09:35:05;9.60;;;5.68;;
24873;SDS011;12945;42.648;23.370;2023-04-24T09:37:34;14.50;;;5.50;;
24873;SDS011;12945;42.648;23.370;2023-04-24T09:40:12;10.07;;;5.50;;
24873;SDS011;12945;42.648;23.370;2023-04-24T09:42:38;8.95;;;5.15;;
24873;SDS011;12945;42.648;23.370;2023-04-24T09:45:04;9.13;;;5.50;;
24873;SDS011;12945;42.648;23.370;2023-04-24T09:47:39;11.95;;;5.38;;
24873;SDS011;12945;42.648;23.370;2023-04-24T09:50:16;8.35;;;5.22;;
24873;SDS011;12945;42.648;23.370;2023-04-24T09:52:45;7.95;;;5.45;;
24873;SDS011;12945;42.648;23.370;2023-04-24T09:55:11;7.88;;;5.15;;
24873;SDS011;12945;42.648;23.370;2023-04-24T09:57:46;12.15;;;5.63;;
24873;SDS011;12945;42.648;23.370;2023-04-24T10:00:11;15.80;;;4.90;;
24873;SDS011;12945;42.648;23.370;2023-04-24T10:02:37;9.07;;;4.60;;
24873;SDS011;12945;42.648;23.370;2023-04-24T10:05:02;11.00;;;4.70;;
24873;SDS011;12945;42.648;23.370;2023-04-24T10:07:27;10.60;;;5.25;;
24873;SDS011;12945;42.648;23.370;2023-04-24T10:09:53;8.25;;;5.00;;
24873;SDS011;12945;42.648;23.370;2023-04-24T10:12:18;9.52;;;4.55;;
24873;SDS011;12945;42.648;23.370;2023-04-24T10:14:45;9.48;;;4.95;;
24873;SDS011;12945;42.648;23.370;2023-04-24T10:17:11;7.32;;;4.93;;
24873;SDS011;12945;42.648;23.370;2023-04-24T10:19:37;11.20;;;4.53;;
24873;SDS011;12945;42.648;23.370;2023-04-24T10:22:03;12.32;;;4.68;;
24873;SDS011;12945;42.648;23.370;2023-04-24T10:24:28;8.23;;;4.78;;
24873;SDS011;12945;42.648;23.370;2023-04-24T10:26:54;5.93;;;4.07;;
24873;SDS011;12945;42.648;23.370;2023-04-24T10:29:21;10.55;;;4.97;;
24873;SDS011;12945;42.648;23.370;2023-04-24T10:31:47;9.05;;;4.63;;
24873;SDS011;12945;42.648;23.370;2023-04-24T10:34:13;7.22;;;4.85;;
24873;SDS011;12945;42.648;23.370;2023-04-24T10:36:41;11.82;;;4.60;;
24873;SDS011;12945;42.648;23.370;2023-04-24T10:39:08;10.98;;;4.68;;
24873;SDS011;12945;42.648;23.370;2023-04-24T10:41:36;10.65;;;4.47;;
24873;SDS011;12945;42.648;23.370;2023-04-24T10:44:05;9.23;;;4.78;;
24873;SDS011;12945;42.648;23.370;2023-04-24T10:46:31;7.95;;;4.70;;
24873;SDS011;12945;42.648;23.370;2023-04-24T10:48:57;12.20;;;4.10;;
24873;SDS011;12945;42.648;23.370;2023-04-24T10:51:23;11.30;;;5.00;;
24873;SDS011;12945;42.648;23.370;2023-04-24T10:53:52;7.88;;;4.32;;
24873;SDS011;12945;42.648;23.370;2023-04-24T10:56:17;7.63;;;4.75;;
24873;SDS011;12945;42.648;23.370;2023-04-24T10:58:43;18.30;;;5.03;;
24873;SDS011;12945;42.648;23.370;2023-04-24T11:01:26;8.27;;;4.20;;
24873;SDS011;12945;42.648;23.370;2023-04-24T11:04:02;9.10;;;4.05;;
24873;SDS011;12945;42.648;23.370;2023-04-24T11:06:36;6.35;;;3.83;;
24873;SDS011;12945;42.648;23.370;2023-04-24T11:09:06;9.23;;;4.10;;
24873;SDS011;12945;42.648;23.370;2023-04-24T11:11:32;7.60;;;3.75;;
24873;SDS011;12945;42.648;23.370;2023-04-24T11:16:27;6.90;;;3.80;;
24873;SDS011;12945;42.648;23.370;2023-04-24T11:19:04;7.75;;;4.47;;
24873;SDS011;12945;42.648;23.370;2023-04-24T11:21:39;7.07;;;4.00;;
24873;SDS011;12945;42.648;23.370;2023-04-24T11:24:28;7.35;;;3.70;;
24873;SDS011;12945;42.648;23.370;2023-04-24T11:27:25;9.13;;;4.30;;
24873;SDS011;12945;42.648;23.370;2023-04-24T11:30:00;11.57;;;3.90;;
24873;SDS011;12945;42.648;23.370;2023-04-24T11:34:58;6.10;;;3.60;;
24873;SDS011;12945;42.648;23.370;2023-04-24T11:37:24;9.55;;;4.18;;
24873;SDS011;12945;42.648;23.370;2023-04-24T11:39:52;13.88;;;3.75;;
24873;SDS011;12945;42.648;23.370;2023-04-24T11:42:17;9.02;;;4.00;;
24873;SDS011;12945;42.648;23.370;2023-04-24T11:44:43;6.70;;;3.50;;
24873;SDS011;12945;42.648;23.370;2023-04-24T11:47:08;6.13;;;3.65;;
24873;SDS011;12945;42.648;23.370;2023-04-24T11:49:37;10.07;;;3.63;;
24873;SDS011;12945;42.648;23.370;2023-04-24T11:52:03;7.22;;;4.15;;
24873;SDS011;12945;42.648;23.370;2023-04-24T11:54:29;12.23;;;5.43;;
24873;SDS011;12945;42.648;23.370;2023-04-24T11:56:55;6.22;;;3.92;;
24873;SDS011;12945;42.648;23.370;2023-04-24T11:59:21;6.57;;;4.85;;
24873;SDS011;12945;42.648;23.370;2023-04-24T12:01:46;5.30;;;3.78;;
24873;SDS011;12945;42.648;23.370;2023-04-24T12:04:12;5.38;;;3.88;;
24873;SDS011;12945;42.648;23.370;2023-04-24T12:06:38;7.00;;;3.58;;
24873;SDS011;12945;42.648;23.370;2023-04-24T12:09:03;6.40;;;3.58;;
24873;SDS011;12945;42.648;23.370;2023-04-24T12:11:29;6.45;;;4.28;;
24873;SDS011;12945;42.648;23.370;2023-04-24T12:13:54;6.30;;;4.40;;
24873;SDS011;12945;42.648;23.370;2023-04-24T12:16:20;8.48;;;4.53;;
24873;SDS011;12945;42.648;23.370;2023-04-24T12:18:45;4.80;;;3.83;;
24873;SDS011;12945;42.648;23.370;2023-04-24T12:21:18;7.88;;;4.28;;
24873;SDS011;12945;42.648;23.370;2023-04-24T12:23:44;4.47;;;4.03;;
24873;SDS011;12945;42.648;23.370;2023-04-24T12:26:10;5.55;;;4.13;;
24873;SDS011;12945;42.648;23.370;2023-04-24T12:28:36;7.28;;;4.70;;
24873;SDS011;12945;42.648;23.370;2023-04-24T12:31:01;7.93;;;4.38;;
24873;SDS011;12945;42.648;23.370;2023-04-24T12:33:27;4.10;;;3.00;;
24873;SDS011;12945;42.648;23.370;2023-04-24T12:35:52;5.10;;;3.17;;
24873;SDS011;12945;42.648;23.370;2023-04-24T12:38:24;6.18;;;4.03;;
24873;SDS011;12945;42.648;23.370;2023-04-24T12:41:01;8.38;;;3.92;;
24873;SDS011;12945;42.648;23.370;2023-04-24T12:43:26;6.63;;;3.92;;
24873;SDS011;12945;42.648;23.370;2023-04-24T12:45:52;6.13;;;3.47;;
24873;SDS011;12945;42.648;23.370;2023-04-24T12:48:19;8.07;;;4.10;;
24873;SDS011;12945;42.648;23.370;2023-04-24T12:50:46;5.88;;;3.90;;
24873;SDS011;12945;42.648;23.370;2023-04-24T12:53:11;6.30;;;3.90;;
24873;SDS011;12945;42.648;23.370;2023-04-24T12:55:37;6.60;;;3.80;;
24873;SDS011;12945;42.648;23.370;2023-04-24T12:58:02;4.95;;;3.80;;
24873;SDS011;12945;42.648;23.370;2023-04-24T13:00:28;8.20;;;4.25;;
24873;SDS011;12945;42.648;23.370;2023-04-24T13:02:53;6.95;;;4.15;;
24873;SDS011;12945;42.648;23.370;2023-04-24T13:05:19;10.45;;;4.20;;
24873;SDS011;12945;42.648;23.370;2023-04-24T13:07:47;8.75;;;4.85;;
24873;SDS011;12945;42.648;23.370;2023-04-24T13:10:12;9.50;;;4.18;;
24873;SDS011;12945;42.648;23.370;2023-04-24T13:12:38;8.45;;;4.70;;
24873;SDS011;12945;42.648;23.370;2023-04-24T13:15:04;9.95;;;4.78;;
24873;SDS011;12945;42.648;23.370;2023-04-24T13:17:29;7.40;;;4.97;;
24873;SDS011;12945;42.648;23.370;2023-04-24T13:19:56;6.50;;;4.80;;
24873;SDS011;12945;42.648;23.370;2023-04-24T13:22:22;8.43;;;4.55;;
24873;SDS011;12945;42.648;23.370;2023-04-24T13:24:47;8.40;;;4.22;;
24873;SDS011;12945;42.648;23.370;2023-04-24T13:27:15;9.07;;;5.22;;
24873;SDS011;12945;42.648;23.370;2023-04-24T13:29:41;10.20;;;4.65;;
24873;SDS011;12945;42.648;23.370;2023-04-24T13:32:08;6.25;;;4.57;;
24873;SDS011;12945;42.648;23.370;2023-04-24T13:34:34;7.07;;;4.22;;
24873;SDS011;12945;42.648;23.370;2023-04-24T13:37:02;11.90;;;4.70;;
24873;SDS011;12945;42.648;23.370;2023-04-24T13:39:28;5.93;;;4.32;;
24873;SDS011;12945;42.648;23.370;2023-04-24T13:41:54;8.10;;;4.47;;
24873;SDS011;12945;42.648;23.370;2023-04-24T13:44:20;6.57;;;4.15;;
24873;SDS011;12945;42.648;23.370;2023-04-24T13:46:46;7.00;;;4.38;;
24873;SDS011;12945;42.648;23.370;2023-04-24T13:49:12;11.35;;;4.88;;
24873;SDS011;12945;42.648;23.370;2023-04-24T13:51:38;11.73;;;4.20;;
24873;SDS011;12945;42.648;23.370;2023-04-24T13:54:03;6.57;;;4.18;;
24873;SDS011;12945;42.648;23.370;2023-04-24T13:56:29;9.55;;;4.00;;
24873;SDS011;12945;42.648;23.370;2023-04-24T13:58:54;10.98;;;4.30;;
24873;SDS011;12945;42.648;23.370;2023-04-24T14:01:19;6.50;;;4.28;;
24873;SDS011;12945;42.648;23.370;2023-04-24T14:03:46;6.28;;;4.07;;
24873;SDS011;12945;42.648;23.370;2023-04-24T14:06:11;5.55;;;4.10;;
24873;SDS011;12945;42.648;23.370;2023-04-24T14:08:36;6.55;;;3.78;;
24873;SDS011;12945;42.648;23.370;2023-04-24T14:11:02;15.90;;;4.47;;
24873;SDS011;12945;42.648;23.370;2023-04-24T14:13:27;11.38;;;3.90;;
24873;SDS011;12945;42.648;23.370;2023-04-24T14:15:53;5.93;;;3.60;;
24873;SDS011;12945;42.648;23.370;2023-04-24T14:18:18;7.05;;;3.80;;
24873;SDS011;12945;42.648;23.370;2023-04-24T14:20:44;7.57;;;3.88;;
24873;SDS011;12945;42.648;23.370;2023-04-24T14:23:09;15.38;;;4.40;;